createdAt,value
2023-05-06T00:00:48.679Z,8.66
2023-05-06T00:02:20.799Z,8.64
2023-05-06T00:03:53.138Z,8.62
2023-05-06T00:05:25.361Z,8.60
2023-05-06T00:06:57.780Z,8.60
2023-05-06T00:08:29.825Z,8.62
2023-05-06T00:11:40.186Z,8.62
2023-05-06T00:13:13.369Z,8.62
2023-05-06T00:14:45.582Z,8.56
2023-05-06T00:16:17.656Z,8.52
2023-05-06T00:17:49.852Z,8.51
2023-05-06T00:19:22.456Z,8.44
2023-05-06T00:20:54.503Z,8.44
2023-05-06T00:22:26.683Z,8.39
2023-05-06T00:23:58.730Z,8.40
2023-05-06T00:25:30.766Z,8.42
2023-05-06T00:27:02.945Z,8.41
2023-05-06T00:28:35.021Z,8.40
2023-05-06T00:30:07.685Z,8.39
2023-05-06T00:31:39.801Z,8.35
2023-05-06T00:33:11.918Z,8.34
2023-05-06T00:34:43.996Z,8.32
2023-05-06T00:36:16.075Z,8.30
2023-05-06T00:37:56.495Z,8.29
2023-05-06T00:39:28.571Z,8.23
2023-05-06T00:41:00.700Z,8.21
2023-05-06T00:42:34.742Z,8.17
2023-05-06T00:44:06.950Z,8.13
2023-05-06T00:45:39.125Z,8.10
2023-05-06T00:47:11.198Z,8.09
2023-05-06T00:48:44.364Z,8.11
2023-05-06T00:50:16.606Z,8.09
2023-05-06T00:51:49.060Z,8.09
2023-05-06T00:53:24.422Z,8.13
2023-05-06T00:54:57.100Z,8.15
2023-05-06T00:56:29.341Z,8.15
2023-05-06T00:58:01.502Z,8.15
2023-05-06T00:59:33.621Z,8.16
2023-05-06T01:01:06.084Z,8.17
2023-05-06T01:02:46.336Z,8.15
2023-05-06T01:04:19.101Z,8.14
2023-05-06T01:06:05.200Z,8.17
2023-05-06T01:07:50.366Z,8.16
2023-05-06T01:09:31.976Z,8.16
2023-05-06T01:11:42.466Z,8.12
2023-05-06T01:13:31.720Z,8.08
2023-05-06T01:15:10.177Z,8.01
2023-05-06T01:16:42.597Z,7.97
2023-05-06T01:18:17.796Z,7.99
2023-05-06T01:19:53.752Z,7.96
2023-05-06T01:21:35.125Z,7.87
2023-05-06T01:23:13.279Z,7.96
2023-05-06T01:24:47.122Z,7.95
2023-05-06T01:26:19.353Z,7.95
2023-05-06T01:27:51.472Z,7.95
2023-05-06T01:29:23.581Z,7.94
2023-05-06T01:31:01.815Z,7.98
2023-05-06T01:32:45.797Z,7.99
2023-05-06T01:34:40.859Z,8.03
2023-05-06T01:36:22.930Z,8.01
2023-05-06T01:38:33.289Z,8.03
2023-05-06T01:40:06.426Z,8.00
2023-05-06T01:41:41.808Z,8.02
2023-05-06T01:43:15.068Z,7.99
2023-05-06T01:44:48.710Z,8.00
2023-05-06T01:46:22.525Z,7.99
2023-05-06T01:47:54.971Z,8.00
2023-05-06T01:49:28.117Z,8.03
2023-05-06T01:51:00.280Z,8.04
2023-05-06T01:52:32.342Z,8.06
2023-05-06T01:54:05.082Z,8.07
2023-05-06T01:55:37.158Z,8.07
2023-05-06T01:57:09.268Z,8.07
2023-05-06T01:58:41.388Z,8.08
2023-05-06T02:00:13.754Z,8.08
2023-05-06T02:01:45.947Z,8.08
2023-05-06T02:03:18.235Z,8.06
2023-05-06T02:04:53.155Z,8.13
2023-05-06T02:06:25.115Z,8.08
2023-05-06T02:07:57.322Z,8.10
2023-05-06T02:09:29.648Z,8.15
2023-05-06T02:11:01.855Z,8.16
2023-05-06T02:12:33.992Z,8.19
2023-05-06T02:14:06.197Z,8.20
2023-05-06T02:15:38.527Z,8.19
2023-05-06T02:17:10.685Z,8.17
2023-05-06T02:18:42.794Z,8.20
2023-05-06T02:20:14.830Z,8.23
2023-05-06T02:21:46.944Z,8.29
2023-05-06T02:23:18.974Z,8.34
2023-05-06T02:24:51.083Z,8.36
2023-05-06T02:26:23.282Z,8.36
2023-05-06T02:27:55.355Z,8.34
2023-05-06T02:29:30.245Z,8.34
2023-05-06T02:31:02.529Z,8.36
2023-05-06T02:32:34.730Z,8.39
2023-05-06T02:34:07.227Z,8.38
2023-05-06T02:35:39.309Z,8.38
2023-05-06T02:37:11.376Z,8.40
2023-05-06T02:38:43.431Z,8.42
2023-05-06T02:40:15.550Z,8.41
2023-05-06T02:41:47.590Z,8.41
2023-05-06T02:43:19.707Z,8.43
2023-05-06T02:44:51.886Z,8.42
2023-05-06T02:46:24.035Z,8.45
2023-05-06T02:47:56.161Z,8.46
2023-05-06T02:49:28.389Z,8.50
2023-05-06T02:51:00.537Z,8.54
2023-05-06T02:52:33.816Z,8.57
2023-05-06T02:54:06.209Z,8.62
2023-05-06T02:55:38.233Z,8.66
2023-05-06T02:57:10.253Z,8.69
2023-05-06T02:58:42.317Z,8.73
2023-05-06T03:00:15.886Z,8.75
2023-05-06T03:01:48.227Z,8.79
2023-05-06T03:03:20.341Z,8.83
2023-05-06T03:04:52.527Z,8.86
2023-05-06T03:06:24.636Z,8.91
2023-05-06T03:07:56.952Z,8.94
2023-05-06T03:09:29.065Z,8.96
2023-05-06T03:11:01.182Z,8.96
2023-05-06T03:12:33.408Z,8.99
2023-05-06T03:14:05.615Z,9.01
2023-05-06T03:15:37.883Z,9.04
2023-05-06T03:17:10.053Z,9.05
2023-05-06T03:18:42.210Z,9.07
2023-05-06T03:20:14.382Z,9.08
2023-05-06T03:21:46.510Z,9.10
2023-05-06T03:23:18.713Z,9.14
2023-05-06T03:24:50.939Z,9.17
2023-05-06T03:26:23.098Z,9.18
2023-05-06T03:27:55.499Z,9.29
2023-05-06T03:29:27.772Z,9.36
2023-05-06T03:31:00.000Z,9.38
2023-05-06T03:32:32.417Z,9.41
2023-05-06T03:34:04.583Z,9.45
2023-05-06T03:35:36.880Z,9.46
2023-05-06T03:37:09.116Z,9.46
2023-05-06T03:38:41.870Z,9.48
2023-05-06T03:40:14.233Z,9.48
2023-05-06T03:41:46.398Z,9.50
2023-05-06T03:43:18.674Z,9.52
2023-05-06T03:44:50.809Z,9.54
2023-05-06T03:46:22.904Z,9.56
2023-05-06T03:47:55.194Z,9.58
2023-05-06T03:49:27.498Z,9.59
2023-05-06T03:50:59.613Z,9.62
2023-05-06T03:52:31.749Z,9.66
2023-05-06T03:54:04.138Z,9.68
2023-05-06T03:55:36.273Z,9.72
2023-05-06T03:57:08.519Z,9.75
2023-05-06T03:58:40.731Z,9.77
2023-05-06T04:00:13.315Z,9.81
2023-05-06T04:01:45.433Z,9.84
2023-05-06T04:03:17.697Z,9.88
2023-05-06T04:04:49.831Z,9.92
2023-05-06T04:06:21.958Z,9.93
2023-05-06T04:07:54.811Z,9.95
2023-05-06T04:09:29.991Z,9.98
2023-05-06T04:11:09.656Z,10.07
2023-05-06T04:12:41.823Z,10.07
2023-05-06T04:14:13.897Z,10.10
2023-05-06T04:15:47.097Z,10.17
2023-05-06T04:17:19.411Z,10.21
2023-05-06T04:18:52.006Z,10.24
2023-05-06T04:20:24.205Z,10.26
2023-05-06T04:21:56.298Z,10.27
2023-05-06T04:23:28.470Z,10.28
2023-05-06T04:25:03.589Z,10.30
2023-05-06T04:26:35.812Z,10.31
2023-05-06T04:28:07.891Z,10.33
2023-05-06T04:29:40.006Z,10.35
2023-05-06T04:31:12.680Z,10.39
2023-05-06T04:32:44.928Z,10.40
2023-05-06T04:34:17.486Z,10.41
2023-05-06T04:35:56.985Z,10.45
2023-05-06T04:37:29.476Z,10.43
2023-05-06T04:39:01.583Z,10.46
2023-05-06T04:40:36.966Z,10.50
2023-05-06T04:42:09.031Z,10.52
2023-05-06T04:43:41.910Z,10.57
2023-05-06T04:45:14.140Z,10.59
2023-05-06T04:46:46.601Z,10.63
2023-05-06T04:48:19.356Z,10.69
2023-05-06T04:49:51.501Z,10.69
2023-05-06T04:51:23.632Z,10.72
2023-05-06T04:52:55.708Z,10.72
2023-05-06T04:54:28.041Z,10.74
2023-05-06T04:56:00.144Z,10.77
2023-05-06T04:57:32.938Z,10.82
2023-05-06T04:59:05.038Z,10.82
2023-05-06T05:00:37.147Z,10.86
2023-05-06T05:03:43.757Z,10.90
2023-05-06T05:05:16.095Z,10.93
2023-05-06T05:06:48.163Z,10.96
2023-05-06T05:08:20.219Z,11.02
2023-05-06T05:09:52.312Z,11.05
2023-05-06T05:11:24.489Z,11.08
2023-05-06T05:12:56.726Z,11.12
2023-05-06T05:14:28.933Z,11.17
2023-05-06T05:16:01.396Z,11.20
2023-05-06T05:17:34.167Z,11.25
2023-05-06T05:19:09.119Z,11.30
2023-05-06T05:20:41.632Z,11.33
2023-05-06T05:22:13.681Z,11.39
2023-05-06T05:23:46.057Z,11.42
2023-05-06T05:25:18.214Z,11.46
2023-05-06T05:26:50.526Z,11.51
2023-05-06T05:28:22.585Z,11.52
2023-05-06T05:29:54.722Z,11.54
2023-05-06T05:31:26.818Z,11.59
2023-05-06T05:32:59.005Z,11.61
2023-05-06T05:34:31.332Z,11.64
2023-05-06T05:36:04.655Z,11.70
2023-05-06T05:37:36.985Z,11.69
2023-05-06T05:39:09.746Z,11.73
2023-05-06T05:40:42.531Z,11.76
2023-05-06T05:42:14.590Z,11.81
2023-05-06T05:43:46.728Z,11.82
2023-05-06T05:45:19.050Z,11.86
2023-05-06T05:46:51.454Z,11.92
2023-05-06T05:48:23.741Z,11.97
2023-05-06T05:49:55.851Z,12.01
2023-05-06T05:51:27.990Z,12.07
2023-05-06T05:53:00.148Z,12.12
2023-05-06T05:54:32.236Z,12.18
2023-05-06T05:56:04.428Z,12.23
2023-05-06T05:57:36.508Z,12.27
2023-05-06T05:59:08.769Z,12.33
2023-05-06T06:00:41.234Z,12.37
2023-05-06T06:02:13.442Z,12.40
2023-05-06T06:03:46.295Z,12.46
2023-05-06T06:05:18.611Z,12.50
2023-05-06T06:06:51.138Z,12.57
2023-05-06T06:08:23.230Z,12.60
2023-05-06T06:09:55.395Z,12.66
2023-05-06T06:11:28.129Z,12.71
2023-05-06T06:13:00.303Z,12.73
2023-05-06T06:14:32.403Z,12.79
2023-05-06T06:16:05.263Z,12.85
2023-05-06T06:17:37.472Z,12.89
2023-05-06T06:19:09.759Z,12.94
2023-05-06T06:20:42.156Z,13.00
2023-05-06T06:22:14.418Z,13.04
2023-05-06T06:23:46.513Z,13.06
2023-05-06T06:25:18.789Z,13.09
2023-05-06T06:26:51.008Z,13.15
2023-05-06T06:28:23.231Z,13.19
2023-05-06T06:29:55.377Z,13.22
2023-05-06T06:31:28.548Z,13.25
2023-05-06T06:33:01.866Z,13.28
2023-05-06T06:34:34.317Z,13.33
2023-05-06T06:37:39.106Z,13.39
2023-05-06T06:39:13.076Z,13.44
2023-05-06T06:40:45.159Z,13.48
2023-05-06T06:42:17.312Z,13.49
2023-05-06T06:43:49.597Z,13.54
2023-05-06T06:45:22.698Z,13.57
2023-05-06T06:46:54.858Z,13.64
2023-05-06T06:48:26.970Z,13.65
2023-05-06T06:49:59.030Z,13.63
2023-05-06T06:51:32.196Z,13.65
2023-05-06T06:53:06.253Z,13.68
2023-05-06T06:54:39.393Z,13.75
2023-05-06T06:56:14.737Z,13.78
2023-05-06T06:57:46.844Z,13.81
2023-05-06T06:59:18.911Z,13.84
2023-05-06T07:00:51.324Z,13.91
2023-05-06T07:02:23.740Z,13.95
2023-05-06T07:03:56.051Z,14.02
2023-05-06T07:05:28.351Z,14.07
2023-05-06T07:07:00.534Z,14.09
2023-05-06T07:08:32.670Z,14.15
2023-05-06T07:10:05.600Z,14.15
2023-05-06T07:11:37.744Z,14.20
2023-05-06T07:13:09.906Z,14.26
2023-05-06T07:14:42.125Z,14.30
2023-05-06T07:16:14.296Z,14.34
2023-05-06T07:17:46.472Z,14.41
2023-05-06T07:19:18.685Z,14.44
2023-05-06T07:20:50.898Z,14.48
2023-05-06T07:22:23.052Z,14.52
2023-05-06T07:23:55.382Z,14.59
2023-05-06T07:25:28.474Z,14.64
2023-05-06T07:27:01.902Z,14.74
2023-05-06T07:28:33.796Z,14.82
2023-05-06T07:30:06.642Z,14.81
2023-05-06T08:11:12.874Z,15.88
2023-05-06T08:12:45.206Z,15.90
2023-05-06T08:14:17.488Z,15.95
2023-05-06T08:15:49.799Z,15.96
2023-05-06T08:17:22.039Z,15.97
2023-05-06T08:18:54.266Z,16.03
2023-05-06T08:20:26.686Z,16.06
2023-05-06T08:21:58.833Z,16.09
2023-05-06T08:23:32.309Z,16.14
2023-05-06T08:25:04.906Z,16.18
2023-05-06T08:26:37.496Z,16.19
2023-05-06T08:28:09.818Z,16.24
2023-05-06T08:29:42.041Z,16.26
2023-05-06T08:31:14.353Z,16.26
2023-05-06T08:32:47.227Z,16.23
2023-05-06T08:34:21.608Z,16.27
2023-05-06T08:35:53.919Z,16.28
2023-05-06T08:37:26.277Z,16.31
2023-05-06T08:38:58.696Z,16.34
2023-05-06T08:40:34.025Z,16.39
2023-05-06T08:42:06.467Z,16.41
2023-05-06T08:43:43.104Z,16.45
2023-05-06T08:45:17.314Z,16.47
2023-05-06T08:46:52.515Z,16.51
2023-05-06T08:48:27.202Z,16.61
2023-05-06T08:49:59.568Z,16.62
2023-05-06T08:51:32.948Z,16.69
2023-05-06T08:53:05.016Z,16.79
2023-05-06T08:54:37.516Z,16.76
2023-05-06T08:56:10.965Z,16.82
2023-05-06T08:57:43.195Z,16.79
2023-05-06T08:59:15.914Z,16.88
2023-05-06T09:00:48.977Z,16.91
2023-05-06T09:02:22.776Z,16.98
2023-05-06T09:03:56.341Z,17.05
2023-05-06T09:05:30.205Z,17.12
2023-05-06T09:07:02.344Z,17.18
2023-05-06T09:08:34.652Z,17.20
2023-05-06T09:10:14.258Z,17.32
2023-05-06T09:11:46.709Z,17.31
2023-05-06T09:13:22.687Z,17.38
2023-05-06T09:14:56.452Z,17.41
2023-05-06T09:16:32.728Z,17.46
2023-05-06T09:18:05.088Z,17.45
2023-05-06T09:19:38.881Z,17.54
2023-05-06T09:21:11.085Z,17.55
2023-05-06T09:22:43.816Z,17.63
2023-05-06T09:24:17.096Z,17.65
2023-05-06T09:25:50.262Z,17.67
2023-05-06T09:27:24.326Z,17.67
2023-05-06T09:28:57.494Z,17.70
2023-05-06T09:30:30.024Z,17.74
2023-05-06T09:32:06.384Z,17.76
2023-05-06T09:33:38.867Z,17.76
2023-05-06T09:35:12.095Z,17.79
2023-05-06T09:36:45.268Z,17.86
2023-05-06T09:38:17.557Z,17.95
2023-05-06T09:39:50.729Z,18.03
2023-05-06T09:41:25.764Z,18.11
2023-05-06T09:42:58.546Z,18.15
2023-05-06T09:44:31.296Z,18.18
2023-05-06T09:46:06.489Z,18.20
2023-05-06T09:47:38.872Z,18.20
2023-05-06T09:49:11.196Z,18.23
2023-05-06T09:50:44.825Z,18.33
2023-05-06T09:52:17.676Z,18.34
2023-05-06T09:53:49.946Z,18.39
2023-05-06T09:55:23.388Z,18.40
2023-05-06T09:56:56.062Z,18.48
2023-05-06T09:58:28.663Z,18.52
2023-05-06T10:00:01.116Z,18.54
2023-05-06T10:01:37.642Z,18.54
2023-05-06T10:03:10.489Z,18.59
2023-05-06T10:04:43.726Z,18.65
2023-05-06T10:06:16.347Z,18.66
2023-05-06T10:07:49.168Z,18.67
2023-05-06T10:09:24.573Z,18.73
2023-05-06T10:10:57.518Z,18.73
2023-05-06T10:12:30.604Z,18.78
2023-05-06T10:14:03.240Z,18.87
2023-05-06T10:15:35.560Z,18.91
2023-05-06T10:17:10.330Z,18.98
2023-05-06T10:18:42.966Z,19.00
2023-05-06T10:20:15.726Z,19.13
2023-05-06T10:21:53.966Z,19.26
2023-05-06T10:23:34.988Z,19.37
2023-05-06T10:25:19.848Z,19.52
2023-05-06T10:26:54.453Z,19.65
2023-05-06T10:28:31.248Z,19.78
2023-05-06T10:30:04.269Z,19.89
2023-05-06T10:31:39.399Z,20.00
2023-05-06T10:33:12.314Z,20.05
2023-05-06T10:34:52.199Z,20.07
2023-05-06T10:36:29.374Z,19.96
2023-05-06T10:38:04.473Z,19.92
2023-05-06T10:39:36.715Z,19.83
2023-05-06T10:41:09.550Z,19.81
2023-05-06T10:42:41.981Z,19.79
2023-05-06T10:44:14.611Z,19.77
2023-05-06T10:46:13.108Z,19.76
2023-05-06T10:47:57.863Z,19.75
2023-05-06T10:49:30.296Z,19.76
2023-05-06T10:51:18.048Z,19.77
2023-05-06T10:52:57.508Z,19.79
2023-05-06T10:54:29.695Z,19.81
2023-05-06T10:56:09.488Z,19.96
2023-05-06T10:57:42.320Z,20.07
2023-05-06T10:59:14.815Z,20.12
2023-05-06T11:00:57.574Z,20.25
2023-05-06T11:02:31.478Z,20.30
2023-05-06T11:04:08.850Z,20.39
2023-05-06T11:05:49.587Z,20.48
2023-05-06T11:07:25.167Z,20.46
2023-05-06T11:09:01.943Z,20.46
2023-05-06T11:10:34.481Z,20.43
2023-05-06T11:12:08.143Z,20.39
2023-05-06T11:13:40.378Z,20.31
2023-05-06T11:15:41.680Z,20.25
2023-05-06T11:17:31.782Z,20.14
2023-05-06T11:19:04.408Z,20.06
2023-05-06T11:20:36.758Z,20.06
2023-05-06T11:22:09.021Z,20.06
2023-05-06T11:23:49.934Z,20.07
2023-05-06T11:25:44.085Z,20.08
2023-05-06T11:27:21.282Z,20.05
2023-05-06T11:28:53.738Z,20.00
2023-05-06T11:30:26.247Z,19.98
2023-05-06T11:32:01.719Z,20.01
2023-05-06T11:33:35.126Z,20.04
2023-05-06T11:35:07.925Z,20.03
2023-05-06T11:37:07.339Z,20.06
2023-05-06T11:38:44.019Z,20.00
2023-05-06T11:40:16.512Z,19.98
2023-05-06T11:41:48.859Z,19.92
2023-05-06T11:43:21.160Z,19.95
2023-05-06T11:44:56.925Z,20.07
2023-05-06T11:46:32.554Z,20.11
2023-05-06T11:48:04.933Z,20.14
2023-05-06T11:49:41.930Z,20.20
2023-05-06T11:51:14.289Z,20.25
2023-05-06T11:52:46.353Z,20.28
2023-05-06T11:54:20.964Z,20.32
2023-05-06T11:55:54.391Z,20.47
2023-05-06T11:57:26.454Z,20.49
2023-05-06T11:58:58.722Z,20.54
2023-05-06T12:00:30.913Z,20.61
2023-05-06T12:02:08.138Z,20.78
2023-05-06T12:03:40.594Z,20.81
2023-05-06T12:05:14.225Z,20.86
2023-05-06T12:06:47.150Z,20.94
2023-05-06T12:08:29.397Z,21.00
2023-05-06T12:10:04.557Z,20.95
2023-05-06T12:11:37.477Z,20.93
2023-05-06T12:13:09.874Z,20.88
2023-05-06T12:14:44.784Z,20.92
2023-05-06T12:16:17.302Z,21.02
2023-05-06T12:17:49.654Z,21.16
2023-05-06T12:19:22.693Z,21.23
2023-05-06T12:20:58.129Z,21.28
2023-05-06T12:22:30.292Z,21.31
2023-05-06T12:24:02.475Z,21.33
2023-05-06T12:25:34.690Z,21.32
2023-05-06T12:27:07.046Z,21.27
2023-05-06T12:28:43.561Z,21.29
2023-05-06T12:30:16.060Z,21.32
2023-05-06T12:31:48.783Z,21.32
2023-05-06T12:33:21.365Z,21.25
2023-05-06T12:34:53.552Z,21.11
2023-05-06T12:36:25.846Z,20.99
2023-05-06T12:38:09.936Z,20.98
2023-05-06T12:39:42.473Z,20.84
2023-05-06T12:41:14.754Z,20.76
2023-05-06T12:42:56.324Z,20.67
2023-05-06T12:44:39.410Z,20.50
2023-05-06T12:46:12.874Z,20.43
2023-05-06T12:47:58.999Z,20.43
2023-05-06T12:49:50.207Z,20.32
2023-05-06T12:51:22.755Z,20.40
2023-05-06T12:52:54.983Z,20.53
2023-05-06T12:54:31.186Z,20.74
2023-05-06T12:56:03.511Z,20.83
2023-05-06T12:57:36.622Z,20.93
2023-05-06T12:59:08.993Z,20.90
2023-05-06T13:00:41.228Z,20.82
2023-05-06T13:02:13.909Z,20.82
2023-05-06T13:03:46.515Z,20.77
2023-05-06T13:05:21.082Z,20.78
2023-05-06T13:06:53.581Z,20.71
2023-05-06T13:08:25.876Z,20.67
2023-05-06T13:09:58.053Z,20.62
2023-05-06T13:11:30.232Z,20.48
2023-05-06T13:13:02.648Z,20.44
2023-05-06T13:14:36.466Z,20.37
2023-05-06T13:16:10.821Z,20.31
2023-05-06T13:17:43.131Z,20.19
2023-05-06T13:19:31.002Z,20.07
2023-05-06T13:21:04.417Z,19.91
2023-05-06T13:22:50.686Z,19.84
2023-05-06T13:24:26.441Z,19.78
2023-05-06T13:26:04.118Z,19.72
2023-05-06T13:27:37.227Z,19.68
2023-05-06T13:29:09.562Z,19.63
2023-05-06T13:30:41.760Z,19.59
2023-05-06T13:32:14.075Z,19.56
2023-05-06T13:33:46.720Z,19.53
2023-05-06T13:35:19.081Z,19.52
2023-05-06T13:36:51.467Z,19.50
2023-05-06T13:38:23.819Z,19.51
2023-05-06T13:39:56.078Z,19.52
2023-05-06T13:41:28.372Z,19.61
2023-05-06T13:43:00.503Z,19.65
2023-05-06T13:44:33.276Z,19.73
2023-05-06T13:46:05.560Z,19.77
2023-05-06T13:47:37.934Z,19.79
2023-05-06T13:49:10.186Z,19.82
2023-05-06T13:50:43.488Z,19.83
2023-05-06T13:52:15.481Z,19.99
2023-05-06T13:53:47.958Z,20.01
2023-05-06T13:55:20.133Z,20.08
2023-05-06T13:56:52.294Z,20.01
2023-05-06T13:58:24.502Z,20.05
2023-05-06T13:59:57.022Z,20.06
2023-05-06T14:01:29.429Z,20.04
2023-05-06T14:03:01.763Z,19.97
2023-05-06T14:04:34.115Z,19.94
2023-05-06T14:06:06.657Z,19.91
2023-05-06T14:07:40.443Z,19.87
2023-05-06T14:09:13.062Z,19.87
2023-05-06T14:10:45.758Z,19.86
2023-05-06T14:12:17.997Z,19.84
2023-05-06T14:13:50.239Z,19.82
2023-05-06T14:15:22.564Z,19.80
2023-05-06T14:16:56.049Z,19.79
2023-05-06T14:18:28.634Z,19.78
2023-05-06T14:20:00.837Z,19.79
2023-05-06T14:21:33.075Z,19.80
2023-05-06T14:23:07.656Z,19.85
2023-05-06T14:24:39.749Z,19.89
2023-05-06T14:26:11.981Z,19.93
2023-05-06T14:27:45.828Z,19.93
2023-05-06T14:29:18.173Z,19.96
2023-05-06T14:30:51.511Z,19.93
2023-05-06T14:32:23.767Z,19.81
2023-05-06T14:33:56.688Z,19.84
2023-05-06T14:35:29.033Z,19.87
2023-05-06T14:37:01.369Z,19.87
2023-05-06T14:38:34.864Z,19.98
2023-05-06T14:40:08.265Z,20.09
2023-05-06T14:41:40.578Z,20.17
2023-05-06T14:43:12.750Z,20.28
2023-05-06T14:44:49.010Z,20.32
2023-05-06T14:46:22.176Z,20.42
2023-05-06T14:47:54.527Z,20.42
2023-05-06T14:49:26.679Z,20.48
2023-05-06T14:50:58.783Z,20.55
2023-05-06T14:52:31.216Z,20.59
2023-05-06T14:54:03.521Z,20.55
2023-05-06T14:55:35.972Z,20.54
2023-05-06T14:57:09.738Z,20.58
2023-05-06T14:58:42.258Z,20.63
2023-05-06T15:00:15.169Z,20.62
2023-05-06T15:01:47.419Z,20.64
2023-05-06T15:03:19.757Z,20.65
2023-05-06T15:04:52.272Z,20.71
2023-05-06T15:06:24.642Z,20.70
2023-05-06T15:07:56.734Z,20.74
2023-05-06T15:09:29.032Z,20.76
2023-05-06T15:11:03.658Z,20.76
2023-05-06T15:12:37.669Z,20.78
2023-05-06T15:14:10.073Z,20.84
2023-05-06T15:15:46.126Z,20.81
2023-05-06T15:17:18.346Z,20.75
2023-05-06T15:18:50.417Z,20.79
2023-05-06T15:20:24.222Z,20.82
2023-05-06T15:21:56.654Z,20.81
2023-05-06T15:23:28.814Z,20.80
2023-05-06T15:25:01.981Z,20.79
2023-05-06T15:26:34.112Z,20.77
2023-05-06T15:28:06.392Z,20.79
2023-05-06T15:29:39.579Z,20.77
2023-05-06T15:31:11.843Z,20.75
2023-05-06T15:32:44.039Z,20.74
2023-05-06T15:34:16.370Z,20.72
2023-05-06T15:35:48.488Z,20.72
2023-05-06T15:37:22.534Z,20.70
2023-05-06T15:39:00.420Z,20.60
2023-05-06T15:40:32.862Z,20.58
2023-05-06T15:42:05.231Z,20.50
2023-05-06T15:43:38.763Z,20.46
2023-05-06T15:45:12.624Z,20.36
2023-05-06T15:46:44.955Z,20.30
2023-05-06T15:48:17.387Z,20.22
2023-05-06T15:49:54.836Z,20.23
2023-05-06T15:51:27.673Z,20.20
2023-05-06T15:53:00.181Z,20.20
2023-05-06T15:54:33.609Z,20.17
2023-05-06T15:56:17.784Z,20.14
2023-05-06T15:57:50.954Z,20.11
2023-05-06T15:59:23.457Z,20.13
2023-05-06T16:00:55.594Z,20.13
2023-05-06T16:02:28.112Z,20.09
2023-05-06T16:04:00.391Z,20.05
2023-05-06T16:05:32.630Z,20.03
2023-05-06T16:07:04.714Z,20.05
2023-05-06T16:08:37.977Z,20.05
2023-05-06T16:10:10.071Z,20.09
2023-05-06T16:11:42.312Z,20.07
2023-05-06T16:13:14.477Z,20.08
2023-05-06T16:14:46.633Z,20.12
2023-05-06T16:16:18.789Z,20.15
2023-05-06T16:17:50.933Z,20.19
2023-05-06T16:19:23.286Z,20.21
2023-05-06T16:20:55.362Z,20.19
2023-05-06T16:22:27.532Z,20.23
2023-05-06T16:24:01.970Z,20.29
2023-05-06T16:25:34.526Z,20.32
2023-05-06T16:27:06.900Z,20.36
2023-05-06T16:28:40.110Z,20.36
2023-05-06T16:30:13.067Z,20.45
2023-05-06T16:31:45.309Z,20.49
2023-05-06T16:33:17.680Z,20.50
2023-05-06T16:34:49.829Z,20.48
2023-05-06T16:36:22.937Z,20.45
2023-05-06T16:37:55.126Z,20.42
2023-05-06T16:39:27.259Z,20.39
2023-05-06T16:40:59.402Z,20.37
2023-05-06T16:42:31.576Z,20.36
2023-05-06T16:44:03.899Z,20.36
2023-05-06T16:45:36.263Z,20.33
2023-05-06T16:47:08.539Z,20.30
2023-05-06T16:48:40.889Z,20.28
2023-05-06T16:50:13.501Z,20.21
2023-05-06T16:51:45.760Z,20.18
2023-05-06T16:53:18.108Z,20.11
2023-05-06T16:54:51.859Z,20.01
2023-05-06T16:56:24.470Z,19.93
2023-05-06T16:58:00.956Z,19.86
2023-05-06T16:59:33.350Z,19.76
2023-05-06T17:01:08.405Z,19.70
2023-05-06T17:02:41.014Z,19.56
2023-05-06T17:04:14.149Z,19.49
2023-05-06T17:05:47.259Z,19.34
2023-05-06T17:07:19.354Z,19.23
2023-05-06T17:08:51.604Z,19.12
2023-05-06T17:10:25.021Z,19.01
2023-05-06T17:11:57.147Z,18.91
2023-05-06T17:13:29.256Z,18.81
2023-05-06T17:15:01.804Z,18.73
2023-05-06T17:16:33.935Z,18.66
2023-05-06T17:18:06.314Z,18.61
2023-05-06T17:19:38.460Z,18.56
2023-05-06T17:21:10.824Z,18.51
2023-05-06T17:22:42.892Z,18.46
2023-05-06T17:24:15.083Z,18.41
2023-05-06T17:25:47.536Z,18.36
2023-05-06T17:27:19.654Z,18.29
2023-05-06T17:28:51.880Z,18.24
2023-05-06T17:30:24.287Z,18.17
2023-05-06T17:31:56.451Z,18.09
2023-05-06T17:33:28.657Z,17.96
2023-05-06T17:35:00.796Z,17.77
2023-05-06T17:36:33.253Z,17.58
2023-05-06T17:38:05.437Z,17.43
2023-05-06T17:39:38.847Z,17.30
2023-05-06T17:41:11.263Z,17.18
2023-05-06T17:42:43.380Z,17.08
2023-05-06T17:44:17.984Z,16.97
2023-05-06T17:45:50.220Z,16.89
2023-05-06T17:47:26.942Z,16.82
2023-05-06T17:49:13.371Z,16.73
2023-05-06T17:50:45.497Z,16.55
2023-05-06T17:52:18.285Z,16.51
2023-05-06T17:53:50.463Z,16.48
2023-05-06T17:55:23.094Z,16.52
2023-05-06T17:56:55.440Z,16.37
2023-05-06T17:58:29.615Z,16.28
2023-05-06T18:00:01.818Z,16.18
2023-05-06T18:04:17.212Z,16.04
2023-05-06T18:08:20.225Z,15.88
2023-05-06T18:09:52.680Z,15.81
2023-05-06T18:11:25.002Z,15.74
2023-05-06T18:12:58.070Z,15.63
2023-05-06T18:14:30.297Z,15.52
2023-05-06T18:16:03.732Z,15.44
2023-05-06T18:17:36.220Z,15.31
2023-05-06T18:19:08.434Z,15.27
2023-05-06T18:20:41.178Z,15.27
2023-05-06T18:22:13.509Z,15.23
2023-05-06T18:23:45.973Z,15.16
2023-05-06T18:25:18.079Z,15.10
2023-05-06T18:26:50.160Z,15.05
2023-05-06T18:28:22.437Z,14.98
2023-05-06T18:29:54.638Z,14.88
2023-05-06T18:31:26.856Z,14.77
2023-05-06T18:32:59.252Z,14.67
2023-05-06T18:34:31.578Z,14.61
2023-05-06T18:36:04.123Z,14.55
2023-05-06T18:37:36.372Z,14.46
2023-05-06T18:39:08.666Z,14.44
2023-05-06T18:40:41.505Z,14.42
2023-05-06T18:42:13.654Z,14.38
2023-05-06T18:43:45.850Z,14.29
2023-05-06T18:45:18.094Z,14.21
2023-05-06T18:46:50.190Z,14.14
2023-05-06T18:48:22.520Z,14.05
2023-05-06T18:49:54.633Z,14.00
2023-05-06T18:51:27.921Z,14.01
2023-05-06T18:53:00.012Z,13.99
2023-05-06T18:54:32.247Z,13.91
2023-05-06T18:56:05.066Z,13.88
2023-05-06T18:57:37.581Z,13.82
2023-05-06T18:59:10.169Z,13.78
2023-05-06T19:00:42.455Z,13.75
2023-05-06T19:02:14.614Z,13.69
2023-05-06T19:03:47.262Z,13.68
2023-05-06T19:05:19.543Z,13.61
2023-05-06T19:06:52.243Z,13.55
2023-05-06T19:08:24.415Z,13.47
2023-05-06T19:09:56.648Z,13.40
2023-05-06T19:11:28.864Z,13.35
2023-05-06T19:13:01.166Z,13.34
2023-05-06T19:14:35.054Z,13.31
2023-05-06T19:16:07.475Z,13.26
2023-05-06T19:17:39.662Z,13.21
2023-05-06T19:19:12.041Z,13.22
2023-05-06T19:22:16.785Z,13.15
2023-05-06T19:23:48.945Z,13.09
2023-05-06T19:25:21.314Z,13.03
2023-05-06T19:26:53.434Z,13.01
2023-05-06T19:28:25.555Z,12.95
2023-05-06T19:29:57.857Z,12.89
2023-05-06T19:31:30.161Z,12.84
2023-05-06T19:33:02.960Z,12.83
2023-05-06T19:34:35.213Z,12.77
2023-05-06T19:36:07.523Z,12.71
2023-05-06T19:37:39.834Z,12.66
2023-05-06T19:39:12.008Z,12.61
2023-05-06T19:40:44.140Z,12.55
2023-05-06T19:42:16.237Z,12.51
2023-05-06T19:43:48.379Z,12.44
2023-05-06T19:45:20.779Z,12.39
2023-05-06T19:46:54.645Z,12.37
2023-05-06T19:48:26.902Z,12.37
2023-05-06T19:49:59.050Z,12.32
2023-05-06T19:51:31.767Z,12.28
2023-05-06T19:53:03.987Z,12.25
2023-05-06T19:54:36.021Z,12.21
2023-05-06T19:56:12.839Z,12.20
2023-05-06T19:57:45.311Z,12.13
2023-05-06T19:59:18.019Z,12.08
2023-05-06T20:00:50.092Z,12.04
2023-05-06T20:02:22.316Z,12.04
2023-05-06T20:03:55.606Z,12.05
2023-05-06T20:05:31.950Z,12.05
2023-05-06T20:07:04.216Z,12.00
2023-05-06T20:08:36.389Z,11.95
2023-05-06T20:10:10.423Z,11.92
2023-05-06T20:11:42.608Z,11.87
2023-05-06T20:13:14.762Z,11.88
2023-05-06T20:14:46.834Z,11.86
2023-05-06T20:16:19.408Z,11.83
2023-05-06T20:17:51.584Z,11.80
2023-05-06T20:19:29.706Z,11.77
2023-05-06T20:21:01.808Z,11.71
2023-05-06T20:22:33.970Z,11.73
2023-05-06T20:24:07.576Z,11.71
2023-05-06T20:25:39.730Z,11.69
2023-05-06T20:27:11.842Z,11.64
2023-05-06T20:28:43.954Z,11.63
2023-05-06T20:30:16.223Z,11.60
2023-05-06T20:31:48.658Z,11.58
2023-05-06T20:33:20.925Z,11.55
2023-05-06T20:34:53.613Z,11.52
2023-05-06T20:36:27.220Z,11.50
2023-05-06T20:37:59.377Z,11.47
2023-05-06T20:39:31.545Z,11.43
2023-05-06T20:42:35.349Z,11.27
2023-05-06T20:44:07.952Z,11.31
2023-05-06T20:45:40.148Z,11.29
2023-05-06T20:47:12.892Z,11.28
2023-05-06T20:48:44.972Z,11.28
2023-05-06T20:50:17.577Z,11.26
2023-05-06T20:51:49.701Z,11.24
2023-05-06T20:53:22.496Z,11.25
2023-05-06T20:54:54.553Z,11.23
2023-05-06T20:56:26.907Z,11.20
2023-05-06T20:57:59.154Z,11.16
2023-05-06T20:59:31.533Z,11.13
2023-05-06T21:01:03.840Z,11.11
2023-05-06T21:02:40.048Z,11.08
2023-05-06T21:04:13.737Z,11.07